Time;durP1;ratioP1;P1;durP2;ratioP2;P2;SDS_P1;SDS_P2;PMS_P1;PMS_P2;Temp;Humidity;BMP_temperature;BMP_pressure;BME280_temperature;BME280_humidity;BME280_pressure;Samples;Min_cycle;Max_cycle;Signal;HPM_P1;HPM_P2
2022/08/13 00:00:22;;;;;;;0.00;0.00;;;19.70;99.90;;;;;;5055149;28;20601;-73
2022/08/13 00:02:48;;;;;;;0.00;0.00;;;19.70;99.90;;;;;;5057075;28;20120;-74
2022/08/13 00:05:15;;;;;;;0.00;0.00;;;19.70;99.90;;;;;;5062484;28;20499;-73
2022/08/13 00:07:41;;;;;;;0.00;0.00;;;19.60;99.90;;;;;;5072778;28;20048;-74
2022/08/13 00:10:11;;;;;;;0.00;0.00;;;19.60;99.90;;;;;;5051529;28;20044;-73
2022/08/13 00:12:56;;;;;;;0.00;0.00;;;19.70;99.90;;;;;;5053726;28;20224;-73
2022/08/13 00:15:28;;;;;;;0.00;0.00;;;19.70;99.90;;;;;;5054359;28;20049;-73
2022/08/13 00:17:57;;;;;;;0.00;0.00;;;19.70;99.90;;;;;;5046970;28;20463;-74
2022/08/13 00:20:28;;;;;;;0.00;0.00;;;19.70;99.90;;;;;;5051345;28;20475;-74
2022/08/13 00:22:56;;;;;;;0.00;0.00;;;19.70;99.90;;;;;;5050789;28;20045;-73
2022/08/13 00:25:23;;;;;;;0.00;0.00;;;19.70;99.90;;;;;;5052005;28;20081;-73
2022/08/13 00:27:56;;;;;;;0.10;0.10;;;19.60;99.90;;;;;;5053177;28;20037;-73
2022/08/13 00:30:33;;;;;;;0.00;0.00;;;19.70;99.90;;;;;;5037671;28;20080;-73
2022/08/13 00:33:10;;;;;;;0.00;0.00;;;19.80;99.90;;;;;;5055505;28;20534;-73
2022/08/13 00:35:37;;;;;;;0.00;0.00;;;19.80;99.90;;;;;;5054727;28;20033;-73
2022/08/13 00:38:07;;;;;;;0.10;0.10;;;19.90;99.90;;;;;;5052300;28;20071;-73
2022/08/13 00:40:34;;;;;;;0.00;0.00;;;19.90;99.90;;;;;;5050624;28;20029;-73
2022/08/13 00:43:04;;;;;;;0.00;0.00;;;20.00;99.90;;;;;;5046087;28;20030;-73
2022/08/13 00:45:32;;;;;;;0.00;0.00;;;20.00;99.90;;;;;;5054512;28;20382;-73
2022/08/13 00:50:44;;;;;;;0.00;0.00;;;20.40;99.90;;;;;;5053482;28;20079;-73
2022/08/13 00:53:17;;;;;;;0.00;0.00;;;20.50;99.90;;;;;;5055224;28;20033;-73
2022/08/13 00:55:56;;;;;;;0.00;0.00;;;20.60;99.90;;;;;;5055150;28;20025;-74
2022/08/13 00:58:23;;;;;;;0.00;0.00;;;20.60;99.90;;;;;;5049914;28;20033;-73
2022/08/13 01:00:56;;;;;;;0.00;0.00;;;20.80;99.90;;;;;;5036854;28;20070;-73
2022/08/13 01:03:23;;;;;;;0.00;0.00;;;21.10;99.90;;;;;;5053350;28;20041;-73
2022/08/13 01:05:49;;;;;;;0.00;0.00;;;21.70;99.90;;;;;;5045359;28;20086;-73
2022/08/13 01:08:18;;;;;;;0.00;0.00;;;22.10;99.90;;;;;;5049007;28;20400;-74
2022/08/13 01:10:49;;;;;;;0.00;0.00;;;22.40;99.90;;;;;;5055989;28;20038;-73
2022/08/13 01:13:18;;;;;;;0.00;0.00;;;22.80;99.90;;;;;;5049926;28;20037;-73
2022/08/13 01:15:45;;;;;;;0.00;0.00;;;23.10;99.90;;;;;;5054861;28;20037;-73
2022/08/13 01:18:13;;;;;;;0.00;0.00;;;23.40;99.90;;;;;;5055227;28;20033;-74
2022/08/13 01:21:02;;;;;;;0.00;0.00;;;24.00;99.90;;;;;;5046305;28;20472;-73
2022/08/13 01:23:29;;;;;;;0.00;0.00;;;23.80;99.90;;;;;;5050107;28;20029;-73
2022/08/13 01:25:59;;;;;;;0.00;0.00;;;23.20;99.90;;;;;;5055600;28;20036;-73
2022/08/13 01:28:29;;;;;;;0.17;0.17;;;23.60;99.90;;;;;;5055477;28;20051;-72
2022/08/13 01:30:59;;;;;;;0.00;0.00;;;23.50;99.90;;;;;;5054520;28;20040;-72
2022/08/13 01:33:27;;;;;;;1.85;1.75;;;23.40;99.90;;;;;;5045909;28;20091;-72
2022/08/13 01:35:54;;;;;;;0.00;0.00;;;23.40;99.90;;;;;;5056781;28;20037;-73
2022/08/13 01:38:22;;;;;;;0.00;0.00;;;23.40;99.90;;;;;;5047171;28;20357;-72
2022/08/13 01:40:49;;;;;;;3.17;2.47;;;23.50;99.90;;;;;;5050278;28;20032;-73
2022/08/13 01:43:17;;;;;;;0.38;0.38;;;23.80;97.50;;;;;;5044325;28;20065;-73
2022/08/13 01:45:44;;;;;;;0.10;0.10;;;24.20;94.10;;;;;;5051757;28;20115;-73
2022/08/13 01:50:55;;;;;;;2.28;2.17;;;24.40;92.20;;;;;;5039755;28;20036;-74
2022/08/13 01:53:22;;;;;;;0.00;0.00;;;24.40;91.30;;;;;;5045870;28;20048;-73
2022/08/13 01:55:52;;;;;;;1.02;1.02;;;24.40;90.40;;;;;;5045284;28;20091;-74
2022/08/13 01:58:22;;;;;;;0.32;0.32;;;25.10;85.00;;;;;;5052593;28;20032;-73
2022/08/13 02:00:54;;;;;;;0.68;0.68;;;25.60;79.60;;;;;;5044751;28;20021;-72
2022/08/13 02:03:21;;;;;;;0.05;0.05;;;25.90;75.40;;;;;;5045516;28;20063;-73
2022/08/13 02:05:49;;;;;;;0.05;0.05;;;26.30;72.10;;;;;;5073774;28;20070;-72
2022/08/13 02:08:20;;;;;;;12.18;5.28;;;26.30;68.30;;;;;;5028936;28;20038;-73
2022/08/13 02:10:49;;;;;;;1.58;1.52;;;26.10;66.30;;;;;;5038129;28;20063;-72
2022/08/13 02:13:22;;;;;;;3.50;0.38;;;25.90;66.50;;;;;;5039933;28;20037;-73
2022/08/13 02:15:49;;;;;;;0.20;0.20;;;26.60;62.50;;;;;;5051640;28;20048;-73
2022/08/13 02:18:19;;;;;;;0.45;0.45;;;26.90;61.00;;;;;;5046528;28;20104;-73
2022/08/13 02:20:49;;;;;;;0.10;0.10;;;27.00;60.70;;;;;;5045178;28;20353;-72
2022/08/13 02:23:21;;;;;;;0.00;0.00;;;27.40;60.60;;;;;;5044709;28;20029;-73
2022/08/13 02:25:50;;;;;;;0.38;0.38;;;28.10;60.10;;;;;;5044479;28;20075;-73
2022/08/13 02:28:21;;;;;;;0.20;0.20;;;28.60;57.50;;;;;;5044233;28;20094;-73
2022/08/13 02:30:57;;;;;;;0.63;0.63;;;28.50;57.10;;;;;;5050855;28;20040;-73
2022/08/13 02:33:24;;;;;;;0.00;0.00;;;27.60;57.50;;;;;;5047969;28;20049;-72
2022/08/13 02:35:51;;;;;;;8.93;8.27;;;28.70;55.50;;;;;;5052904;28;20037;-74
2022/08/13 02:38:18;;;;;;;1.48;1.38;;;29.30;52.20;;;;;;5048962;28;20026;-73
2022/08/13 02:43:31;;;;;;;0.00;0.00;;;29.50;51.90;;;;;;5045803;28;20120;-73
2022/08/13 02:46:00;;;;;;;0.38;0.38;;;28.70;54.20;;;;;;5047535;28;20037;-73
2022/08/13 02:48:29;;;;;;;4.22;0.73;;;28.80;54.10;;;;;;5047889;28;20559;-73
2022/08/13 02:50:57;;;;;;;0.20;0.20;;;28.30;54.80;;;;;;5047434;28;20032;-72
2022/08/13 02:53:25;;;;;;;0.20;0.20;;;28.80;54.40;;;;;;5045124;28;20120;-73
2022/08/13 02:55:52;;;;;;;2.03;1.20;;;29.30;53.10;;;;;;5046131;28;20034;-72
2022/08/13 02:58:19;;;;;;;5.55;4.05;;;29.10;52.40;;;;;;5048718;28;20025;-72
2022/08/13 03:00:49;;;;;;;0.13;0.13;;;28.60;51.60;;;;;;5040079;28;20143;-73
2022/08/13 03:03:17;;;;;;;0.10;0.10;;;29.10;53.10;;;;;;5035483;28;20042;-73
2022/08/13 03:05:44;;;;;;;0.00;0.00;;;30.60;50.40;;;;;;5039563;28;20040;-73
2022/08/13 03:08:11;;;;;;;0.65;0.65;;;31.50;50.20;;;;;;5039686;28;20061;-73
2022/08/13 03:10:39;;;;;;;2.13;1.73;;;31.90;47.40;;;;;;5047008;28;20499;-72
2022/08/13 03:13:21;;;;;;;1.35;0.95;;;31.90;45.30;;;;;;5047446;28;20065;-73
2022/08/13 03:15:52;;;;;;;0.03;0.03;;;30.90;46.10;;;;;;5047499;28;20116;-73
2022/08/13 03:18:19;;;;;;;0.32;0.30;;;30.60;46.60;;;;;;5048571;28;20281;-73
2022/08/13 03:20:45;;;;;;;0.00;0.00;;;30.30;46.80;;;;;;5046566;28;20032;-74
2022/08/13 03:23:11;;;;;;;3.00;0.93;;;30.70;45.60;;;;;;5043143;28;20064;-73
2022/08/13 03:25:37;;;;;;;9.75;2.08;;;30.50;45.60;;;;;;5045436;28;20159;-73
2022/08/13 03:28:05;;;;;;;0.55;0.55;;;30.00;46.60;;;;;;5044504;28;20029;-73
2022/08/13 03:30:34;;;;;;;0.00;0.00;;;29.40;47.30;;;;;;5050118;28;20033;-73
2022/08/13 03:33:13;;;;;;;0.32;0.32;;;28.00;50.00;;;;;;5045089;28;20045;-73
2022/08/13 03:35:40;;;;;;;0.15;0.15;;;26.90;52.50;;;;;;5036526;28;20040;-73
2022/08/13 03:38:10;;;;;;;0.00;0.00;;;27.20;52.00;;;;;;5042574;28;20033;-73
2022/08/13 03:43:22;;;;;;;3.92;3.13;;;27.30;51.60;;;;;;5049860;28;20044;-73
2022/08/13 03:45:48;;;;;;;4.65;2.15;;;27.00;51.90;;;;;;5049825;28;20048;-73
2022/08/13 03:48:16;;;;;;;0.00;0.00;;;26.70;52.10;;;;;;5046421;28;20127;-72
2022/08/13 03:50:44;;;;;;;1.10;1.10;;;26.60;52.30;;;;;;5044125;28;20040;-73
2022/08/13 03:53:11;;;;;;;0.10;0.10;;;26.90;51.90;;;;;;5045220;28;20088;-73
2022/08/13 03:55:42;;;;;;;0.17;0.17;;;27.20;51.10;;;;;;5048357;28;20420;-73
2022/08/13 03:58:10;;;;;;;0.38;0.38;;;26.10;54.50;;;;;;5052733;28;20120;-73
2022/08/13 04:00:39;;;;;;;4.68;0.68;;;26.00;54.80;;;;;;5040579;28;20036;-72
2022/08/13 04:03:28;;;;;;;3.03;2.92;;;26.10;55.00;;;;;;5047011;28;20048;-72
2022/08/13 04:06:06;;;;;;;1.65;1.55;;;25.90;56.40;;;;;;5038176;28;20383;-73
2022/08/13 04:08:35;;;;;;;0.00;0.00;;;26.30;55.70;;;;;;5042047;28;20033;-73
2022/08/13 04:11:09;;;;;;;0.00;0.00;;;26.50;55.10;;;;;;5050858;28;20037;-73
2022/08/13 04:13:38;;;;;;;0.00;0.00;;;26.70;54.10;;;;;;5040202;28;20029;-73
2022/08/13 04:16:07;;;;;;;0.15;0.15;;;26.70;53.30;;;;;;5040001;28;20055;-73
2022/08/13 04:18:37;;;;;;;0.32;0.22;;;27.00;53.70;;;;;;5047559;28;20029;-73
2022/08/13 04:21:09;;;;;;;0.45;0.45;;;27.20;52.50;;;;;;5050778;28;20037;-73
2022/08/13 04:23:39;;;;;;;0.10;0.10;;;27.10;52.90;;;;;;5042860;28;20295;-73
2022/08/13 04:26:08;;;;;;;0.85;0.43;;;26.90;53.40;;;;;;5050075;28;20163;-73
2022/08/13 04:28:35;;;;;;;1.08;0.30;;;27.00;53.30;;;;;;5051684;28;20037;-73
2022/08/13 04:31:02;;;;;;;0.65;0.65;;;27.10;52.70;;;;;;5053411;28;20129;-73
2022/08/13 04:33:28;;;;;;;3.60;1.85;;;27.10;52.90;;;;;;5051581;28;20064;-73
2022/08/13 04:35:56;;;;;;;0.65;0.65;;;26.90;51.90;;;;;;5057284;28;20490;-73
2022/08/13 04:38:22;;;;;;;0.00;0.00;;;26.90;52.10;;;;;;5053296;28;20422;-73
2022/08/13 04:40:48;;;;;;;0.00;0.00;;;27.10;52.10;;;;;;5047381;28;20363;-72
2022/08/13 04:43:15;;;;;;;0.00;0.00;;;27.40;52.90;;;;;;5045471;28;20029;-73
2022/08/13 04:45:42;;;;;;;1.35;0.43;;;27.30;53.10;;;;;;5047901;28;20471;-73
2022/08/13 04:48:12;;;;;;;0.00;0.00;;;26.80;53.90;;;;;;5053799;28;20036;-73
2022/08/13 04:50:40;;;;;;;0.68;0.65;;;27.10;53.30;;;;;;5044857;28;20037;-73
2022/08/13 04:53:09;;;;;;;0.38;0.38;;;27.40;53.50;;;;;;5049144;28;20033;-73
2022/08/13 04:55:37;;;;;;;2.22;2.13;;;27.30;51.80;;;;;;5053270;28;20112;-73
2022/08/13 04:58:08;;;;;;;1.05;0.65;;;26.70;53.60;;;;;;5048050;28;20039;-74
2022/08/13 05:00:34;;;;;;;0.22;0.22;;;27.00;53.60;;;;;;5053047;28;20460;-75
2022/08/13 05:03:16;;;;;;;2.05;1.95;;;27.00;52.10;;;;;;5045829;28;20488;-75
2022/08/13 05:05:44;;;;;;;0.00;0.00;;;27.20;52.40;;;;;;5049205;28;20467;-73
2022/08/13 05:08:12;;;;;;;0.98;0.22;;;27.50;50.50;;;;;;5052780;28;20041;-73
2022/08/13 05:10:39;;;;;;;0.30;0.30;;;27.40;52.30;;;;;;5048250;28;20037;-75
2022/08/13 05:13:24;;;;;;;0.00;0.00;;;27.60;52.70;;;;;;5031639;28;20044;-73
2022/08/13 05:15:51;;;;;;;0.15;0.15;;;27.60;51.80;;;;;;5050634;28;20049;-73
2022/08/13 05:18:18;;;;;;;0.00;0.00;;;27.70;51.80;;;;;;5047383;28;20045;-72
2022/08/13 05:20:45;;;;;;;3.00;0.98;;;28.00;50.90;;;;;;5043864;28;20053;-74
2022/08/13 05:23:13;;;;;;;0.03;0.03;;;28.00;50.10;;;;;;5053182;28;20029;-75
2022/08/13 05:25:41;;;;;;;0.00;0.00;;;27.80;49.10;;;;;;5039167;28;20041;-73
2022/08/13 05:28:11;;;;;;;2.20;0.88;;;27.80;50.60;;;;;;5053365;28;20060;-74
2022/08/13 05:30:39;;;;;;;0.10;0.10;;;28.00;50.90;;;;;;5050045;28;20033;-73
2022/08/13 05:33:18;;;;;;;5.53;0.32;;;28.00;50.30;;;;;;5041306;28;20504;-74
2022/08/13 05:35:47;;;;;;;7.95;3.92;;;28.10;50.80;;;;;;5053690;28;20057;-73
2022/08/13 05:38:15;;;;;;;0.00;0.00;;;28.10;49.70;;;;;;5051761;28;20083;-73
2022/08/13 05:40:43;;;;;;;7.93;0.93;;;28.10;49.70;;;;;;5052348;28;20440;-73
2022/08/13 05:43:14;;;;;;;0.63;0.63;;;28.20;50.60;;;;;;5049631;28;20055;-74
2022/08/13 05:45:47;;;;;;;4.20;0.20;;;28.30;51.10;;;;;;5053595;28;20091;-73
2022/08/13 05:48:13;;;;;;;1.50;0.95;;;28.00;50.00;;;;;;5045705;28;20078;-74
2022/08/13 05:50:41;;;;;;;1.33;1.33;;;28.10;51.20;;;;;;5052628;28;20035;-73
2022/08/13 05:53:11;;;;;;;1.58;0.65;;;28.30;51.00;;;;;;5050942;28;20091;-73
2022/08/13 05:55:38;;;;;;;7.70;3.03;;;28.30;50.30;;;;;;5045987;28;20029;-74
2022/08/13 05:58:06;;;;;;;6.05;2.92;;;27.90;50.20;;;;;;5049741;28;20029;-73
2022/08/13 06:03:27;;;;;;;0.13;0.13;;;28.00;47.90;;;;;;5055235;28;20378;-74
2022/08/13 06:05:58;;;;;;;0.10;0.10;;;28.00;50.40;;;;;;5054230;28;20530;-72
2022/08/13 06:08:29;;;;;;;0.08;0.08;;;28.20;50.40;;;;;;5036744;28;20111;-73
2022/08/13 06:11:05;;;;;;;0.00;0.00;;;28.20;51.90;;;;;;5036653;28;20041;-73
2022/08/13 06:13:33;;;;;;;2.90;1.98;;;28.10;50.20;;;;;;5045929;28;20116;-75
2022/08/13 06:16:01;;;;;;;2.88;1.45;;;28.00;51.40;;;;;;5048091;28;20091;-73
2022/08/13 06:18:32;;;;;;;0.63;0.20;;;27.90;52.90;;;;;;5051648;28;20079;-75
2022/08/13 06:21:01;;;;;;;0.00;0.00;;;27.90;52.20;;;;;;5053056;28;20021;-74
2022/08/13 06:23:30;;;;;;;4.85;0.98;;;28.00;51.50;;;;;;5044725;28;20060;-75
2022/08/13 06:25:58;;;;;;;0.00;0.00;;;28.10;51.10;;;;;;5048562;28;20041;-75
2022/08/13 06:28:27;;;;;;;0.28;0.10;;;28.20;50.40;;;;;;5050064;28;20044;-74
2022/08/13 06:31:00;;;;;;;0.00;0.00;;;28.10;50.50;;;;;;5043233;28;20040;-74
2022/08/13 06:33:28;;;;;;;3.67;3.40;;;28.00;51.20;;;;;;5051682;28;20033;-73
2022/08/13 06:36:01;;;;;;;0.13;0.13;;;28.10;52.50;;;;;;5067835;22;20076;-74
2022/08/13 06:38:36;;;;;;;0.80;0.80;;;28.00;51.00;;;;;;5066175;28;20028;-74
2022/08/13 06:41:07;;;;;;;0.03;0.03;;;28.00;51.30;;;;;;5073979;28;20360;-74
2022/08/13 06:43:40;;;;;;;0.00;0.00;;;28.00;50.90;;;;;;5076287;28;20078;-74
2022/08/13 06:46:07;;;;;;;0.38;0.38;;;28.20;50.50;;;;;;5079186;28;20036;-74
2022/08/13 06:48:35;;;;;;;1.08;0.60;;;28.20;50.90;;;;;;5079214;28;20058;-74
2022/08/13 06:51:05;;;;;;;0.10;0.10;;;28.10;52.60;;;;;;5074376;28;20028;-75
2022/08/13 06:53:32;;;;;;;0.22;0.22;;;28.20;52.20;;;;;;5065646;28;20039;-74
2022/08/13 06:56:00;;;;;;;0.00;0.00;;;28.20;51.00;;;;;;5074409;28;20494;-74
2022/08/13 06:58:28;;;;;;;0.00;0.00;;;28.10;48.60;;;;;;5079857;28;20029;-74
2022/08/13 07:00:55;;;;;;;1.55;1.42;;;28.20;49.00;;;;;;5073484;28;20024;-74
2022/08/13 07:03:29;;;;;;;0.00;0.00;;;28.50;48.70;;;;;;5072999;28;20043;-74
2022/08/13 07:05:56;;;;;;;0.22;0.22;;;28.60;48.50;;;;;;5070696;28;20082;-74
2022/08/13 07:08:24;;;;;;;0.38;0.38;;;28.60;48.00;;;;;;5069303;28;20032;-74
2022/08/13 07:11:21;;;;;;;0.80;0.63;;;28.50;47.70;;;;;;5060552;28;20044;-75
2022/08/13 07:13:45;;;;;;;0.40;0.25;;;28.60;49.00;;;;;;5063252;28;20064;-74
2022/08/13 07:16:18;;;;;;;0.03;0.03;;;28.70;49.00;;;;;;5072674;28;20051;-74
2022/08/13 07:18:46;;;;;;;2.90;1.48;;;28.90;48.90;;;;;;5072283;28;20040;-74
2022/08/13 07:21:15;;;;;;;0.65;0.65;;;29.00;47.70;;;;;;5067649;28;20049;-74
2022/08/13 07:23:43;;;;;;;0.00;0.00;;;29.10;47.80;;;;;;5065680;28;20469;-74
2022/08/13 07:26:14;;;;;;;0.00;0.00;;;29.00;47.40;;;;;;5071086;28;20037;-74
2022/08/13 07:28:41;;;;;;;1.33;1.23;;;28.90;48.30;;;;;;5066547;28;20047;-74
2022/08/13 07:31:09;;;;;;;2.30;0.85;;;29.00;48.20;;;;;;5070295;28;20111;-73
2022/08/13 07:33:37;;;;;;;0.90;0.90;;;29.10;47.80;;;;;;5065828;28;20028;-75
2022/08/13 07:36:10;;;;;;;0.17;0.17;;;29.30;47.40;;;;;;5065209;28;20487;-74
2022/08/13 07:38:37;;;;;;;0.25;0.25;;;29.60;46.00;;;;;;5070053;28;20481;-73
2022/08/13 07:41:04;;;;;;;0.20;0.20;;;29.00;45.60;;;;;;5071105;28;20047;-73
2022/08/13 07:43:36;;;;;;;3.80;0.88;;;29.00;45.40;;;;;;5071186;28;20036;-75
2022/08/13 07:46:10;;;;;;;0.65;0.65;;;29.20;45.30;;;;;;5060172;28;20495;-73
2022/08/13 07:48:43;;;;;;;3.13;1.33;;;29.00;45.80;;;;;;5067832;28;20037;-74
2022/08/13 07:51:19;;;;;;;1.10;0.80;;;29.00;46.20;;;;;;5068965;28;20035;-75
2022/08/13 07:53:51;;;;;;;0.10;0.10;;;29.10;45.40;;;;;;5070817;28;20032;-75
2022/08/13 07:56:28;;;;;;;0.00;0.00;;;29.00;45.10;;;;;;5069021;28;20312;-74
2022/08/13 07:59:03;;;;;;;0.70;0.70;;;28.90;45.70;;;;;;5065232;28;20041;-76
2022/08/13 08:01:46;;;;;;;1.58;0.75;;;29.00;45.70;;;;;;5070059;28;20040;-74
2022/08/13 08:04:15;;;;;;;0.60;0.57;;;29.00;46.60;;;;;;5067081;28;20029;-75
2022/08/13 08:06:46;;;;;;;0.00;0.00;;;29.10;45.50;;;;;;5070010;28;20036;-74
2022/08/13 08:09:24;;;;;;;0.08;0.08;;;29.40;45.30;;;;;;5069877;28;20359;-74
2022/08/13 08:14:37;;;;;;;0.03;0.03;;;30.00;45.30;;;;;;5065085;28;20116;-73
2022/08/13 08:17:06;;;;;;;0.00;0.00;;;30.10;44.70;;;;;;5069859;28;20512;-74
2022/08/13 08:19:32;;;;;;;0.00;0.00;;;30.20;44.80;;;;;;5067492;28;20028;-74
2022/08/13 08:21:59;;;;;;;0.22;0.22;;;29.90;45.10;;;;;;5071434;28;20040;-73
2022/08/13 08:24:26;;;;;;;1.08;0.98;;;29.80;45.40;;;;;;5071379;28;20031;-72
2022/08/13 08:26:55;;;;;;;0.00;0.00;;;29.60;45.00;;;;;;5073724;28;20451;-73
2022/08/13 08:29:22;;;;;;;3.00;2.17;;;29.50;44.80;;;;;;5073614;28;20025;-72
2022/08/13 08:31:49;;;;;;;0.25;0.25;;;29.40;45.40;;;;;;5073695;28;20033;-73
2022/08/13 08:34:18;;;;;;;0.03;0.03;;;29.40;45.30;;;;;;5071779;28;20066;-73
2022/08/13 08:36:47;;;;;;;0.77;0.77;;;29.70;45.80;;;;;;5089673;28;20481;-73
2022/08/13 08:44:45;;;;;;;0.00;0.00;;;29.90;44.40;;;;;;5093446;28;20032;-74
2022/08/13 08:47:12;;;;;;;0.20;0.20;;;29.70;44.40;;;;;;5094980;28;20032;-74
2022/08/13 08:49:39;;;;;;;2.20;0.98;;;29.70;44.10;;;;;;5092089;28;20032;-74
2022/08/13 08:52:08;;;;;;;0.03;0.03;;;29.60;43.80;;;;;;5093703;28;20040;-74
2022/08/13 08:54:36;;;;;;;0.00;0.00;;;29.90;44.50;;;;;;5092859;28;20059;-72
2022/08/13 08:57:05;;;;;;;1.77;0.40;;;29.90;44.20;;;;;;5091040;28;20032;-72
2022/08/13 08:59:39;;;;;;;0.00;0.00;;;30.30;44.10;;;;;;5090453;28;20024;-73
2022/08/13 09:02:18;;;;;;;0.25;0.25;;;30.30;44.20;;;;;;5090635;28;20043;-74
2022/08/13 09:04:53;;;;;;;0.00;0.00;;;30.40;43.80;;;;;;5073094;28;20558;-73
2022/08/13 09:07:23;;;;;;;5.05;2.50;;;30.60;43.20;;;;;;5093021;28;20047;-75
2022/08/13 09:09:56;;;;;;;0.63;0.32;;;30.10;42.70;;;;;;5092153;28;20036;-73
2022/08/13 09:12:25;;;;;;;0.00;0.00;;;30.20;42.60;;;;;;5093176;28;20521;-73
2022/08/13 09:14:52;;;;;;;0.00;0.00;;;30.30;43.00;;;;;;5087791;28;20067;-72
2022/08/13 09:17:20;;;;;;;0.38;0.35;;;30.30;42.90;;;;;;5089485;28;20490;-73
2022/08/13 09:19:46;;;;;;;0.28;0.20;;;30.40;43.30;;;;;;5089130;28;20150;-73
2022/08/13 09:22:17;;;;;;;0.15;0.15;;;30.50;43.10;;;;;;5093080;28;20039;-73
2022/08/13 09:24:47;;;;;;;0.00;0.00;;;30.50;43.20;;;;;;5092399;28;20032;-74
2022/08/13 09:27:16;;;;;;;7.57;7.07;;;30.60;43.40;;;;;;5091323;28;20036;-74
2022/08/13 09:29:49;;;;;;;0.10;0.10;;;30.70;42.90;;;;;;5082896;28;20033;-73
2022/08/13 09:32:15;;;;;;;1.02;0.80;;;30.60;42.80;;;;;;5087831;28;20032;-75
2022/08/13 09:34:44;;;;;;;0.00;0.00;;;30.60;43.10;;;;;;5087152;28;20074;-75
2022/08/13 09:37:13;;;;;;;0.00;0.00;;;30.60;43.30;;;;;;5084188;28;20032;-74
2022/08/13 09:40:06;;;;;;;1.92;0.43;;;30.60;42.40;;;;;;5089230;28;20073;-74
2022/08/13 09:42:57;;;;;;;0.75;0.57;;;30.70;42.90;;;;;;5091494;28;20478;-74
2022/08/13 09:45:25;;;;;;;0.65;0.65;;;30.60;42.40;;;;;;5089102;28;20500;-74
2022/08/13 09:47:55;;;;;;;0.00;0.00;;;30.40;42.10;;;;;;5083334;28;20115;-74
2022/08/13 09:50:24;;;;;;;0.10;0.10;;;30.10;42.90;;;;;;5087631;28;20040;-74
2022/08/13 09:52:52;;;;;;;0.00;0.00;;;30.20;43.70;;;;;;5089441;28;20044;-74
2022/08/13 09:55:22;;;;;;;0.63;0.35;;;30.40;43.40;;;;;;5091806;28;20028;-74
2022/08/13 09:57:59;;;;;;;0.52;0.52;;;30.30;43.90;;;;;;5088987;28;20039;-73
2022/08/13 10:00:31;;;;;;;0.00;0.00;;;30.00;42.90;;;;;;5088722;28;20359;-73
2022/08/13 10:03:04;;;;;;;0.10;0.10;;;30.10;42.50;;;;;;5092707;28;20037;-74
2022/08/13 10:05:34;;;;;;;0.22;0.22;;;29.90;42.90;;;;;;5092548;28;20483;-74
2022/08/13 10:08:02;;;;;;;0.00;0.00;;;30.00;42.70;;;;;;5088702;28;20040;-74
2022/08/13 10:10:30;;;;;;;1.27;1.17;;;30.10;43.60;;;;;;5080435;28;20028;-74
2022/08/13 10:12:58;;;;;;;0.00;0.00;;;30.30;43.00;;;;;;5085534;28;20043;-74
2022/08/13 10:15:27;;;;;;;0.08;0.08;;;30.30;43.20;;;;;;5088737;28;20035;-75
2022/08/13 10:17:55;;;;;;;0.35;0.20;;;30.20;43.50;;;;;;5089243;28;20493;-74
2022/08/13 10:20:33;;;;;;;0.52;0.52;;;30.10;43.70;;;;;;5082539;28;20478;-74
2022/08/13 10:23:02;;;;;;;0.00;0.00;;;30.20;43.20;;;;;;5087889;28;20046;-74
2022/08/13 10:25:29;;;;;;;0.00;0.00;;;30.30;43.10;;;;;;5092815;28;20036;-74
2022/08/13 10:27:55;;;;;;;0.08;0.08;;;30.30;43.00;;;;;;5086594;28;20036;-75
2022/08/13 10:30:25;;;;;;;0.00;0.00;;;30.30;43.50;;;;;;5090448;28;20058;-74
2022/08/13 10:32:55;;;;;;;0.85;0.85;;;30.30;43.60;;;;;;5087808;28;20047;-74
2022/08/13 10:35:27;;;;;;;0.00;0.00;;;30.30;43.40;;;;;;5091032;28;20046;-74
2022/08/13 10:37:56;;;;;;;0.30;0.30;;;30.10;43.50;;;;;;5082287;28;20047;-74
2022/08/13 10:40:24;;;;;;;0.00;0.00;;;29.80;44.10;;;;;;5087491;28;20035;-72
2022/08/13 10:42:52;;;;;;;6.43;0.43;;;29.90;44.20;;;;;;5082952;28;20032;-73
2022/08/13 10:45:26;;;;;;;0.00;0.00;;;30.00;44.00;;;;;;5086336;28;20157;-72
2022/08/13 10:47:54;;;;;;;0.00;0.00;;;29.70;43.80;;;;;;5086849;28;20059;-74
2022/08/13 10:50:29;;;;;;;0.00;0.00;;;29.60;44.30;;;;;;5085024;28;20119;-74
2022/08/13 10:53:55;;;;;;;0.00;0.00;;;29.70;43.80;;;;;;5086626;28;20044;-74
2022/08/13 10:56:01;;;;;;;0.90;0.63;;;29.60;44.70;;;;;;5085501;28;20040;-72
2022/08/13 10:58:27;;;;;;;0.03;0.03;;;29.80;44.80;;;;;;5085914;28;20420;-73
2022/08/13 11:00:53;;;;;;;0.00;0.00;;;29.60;44.20;;;;;;5089887;28;20047;-73
2022/08/13 11:03:19;;;;;;;0.00;0.00;;;29.50;44.80;;;;;;5086993;28;20042;-74
2022/08/13 11:05:47;;;;;;;0.00;0.00;;;29.60;45.30;;;;;;5086300;28;20133;-74
2022/08/13 11:08:14;;;;;;;4.03;3.72;;;29.70;45.70;;;;;;5083479;28;20055;-73
2022/08/13 11:10:41;;;;;;;1.40;0.85;;;29.80;45.00;;;;;;5088148;28;20040;-73
2022/08/13 11:13:07;;;;;;;0.10;0.10;;;29.60;45.20;;;;;;5086810;28;20040;-73
2022/08/13 11:15:33;;;;;;;0.00;0.00;;;29.30;46.00;;;;;;5088096;28;20024;-75
2022/08/13 11:18:00;;;;;;;0.00;0.00;;;29.20;45.90;;;;;;5086411;28;20145;-73
2022/08/13 11:20:29;;;;;;;0.40;0.40;;;29.40;46.20;;;;;;5082724;28;20024;-74
2022/08/13 11:22:56;;;;;;;0.00;0.00;;;29.40;45.50;;;;;;5084605;28;20521;-74
2022/08/13 11:25:24;;;;;;;0.00;0.00;;;29.40;46.50;;;;;;5089190;28;20492;-74
2022/08/13 11:27:50;;;;;;;0.30;0.30;;;29.60;45.60;;;;;;5080427;28;20036;-74
2022/08/13 11:30:17;;;;;;;0.10;0.10;;;29.80;45.40;;;;;;5085337;28;20505;-75
2022/08/13 11:32:43;;;;;;;0.00;0.00;;;29.70;45.50;;;;;;5087905;28;20036;-73
2022/08/13 11:35:10;;;;;;;0.22;0.13;;;29.80;45.40;;;;;;5084088;28;20039;-73
2022/08/13 11:37:37;;;;;;;0.00;0.00;;;30.00;45.30;;;;;;5087284;28;20032;-73
2022/08/13 11:40:05;;;;;;;0.00;0.00;;;29.80;45.30;;;;;;5086773;28;20104;-73
2022/08/13 11:42:32;;;;;;;0.85;0.75;;;29.90;45.50;;;;;;5084664;28;20036;-74
2022/08/13 11:44:58;;;;;;;0.00;0.00;;;29.70;45.60;;;;;;5090628;28;20105;-73
2022/08/13 11:47:25;;;;;;;0.43;0.15;;;29.60;45.80;;;;;;5087137;28;20119;-74
2022/08/13 11:49:51;;;;;;;1.35;1.25;;;29.60;45.00;;;;;;5085453;28;20032;-74
2022/08/13 11:52:17;;;;;;;0.00;0.00;;;29.60;44.80;;;;;;5087381;28;20072;-74
2022/08/13 11:54:43;;;;;;;0.00;0.00;;;29.60;45.20;;;;;;5095587;28;20141;-74
2022/08/13 11:57:09;;;;;;;0.00;0.00;;;29.60;45.00;;;;;;5092633;28;20056;-74
2022/08/13 11:59:36;;;;;;;0.03;0.03;;;29.70;45.10;;;;;;5092464;28;20034;-73
2022/08/13 12:02:02;;;;;;;0.00;0.00;;;29.70;44.60;;;;;;5096035;28;20039;-74
2022/08/13 12:04:28;;;;;;;0.47;0.47;;;29.80;44.70;;;;;;5094986;28;20389;-74
2022/08/13 12:06:54;;;;;;;0.00;0.00;;;29.70;44.10;;;;;;5096895;28;20047;-74
2022/08/13 12:09:21;;;;;;;0.00;0.00;;;29.70;44.50;;;;;;5095662;28;20038;-74
2022/08/13 12:11:47;;;;;;;0.10;0.10;;;29.70;44.20;;;;;;5096482;28;20032;-74
2022/08/13 12:14:14;;;;;;;0.55;0.55;;;29.70;44.00;;;;;;5084114;28;20043;-73
2022/08/13 12:16:40;;;;;;;1.58;0.90;;;29.60;44.10;;;;;;5091154;28;20424;-74
2022/08/13 12:19:06;;;;;;;0.22;0.22;;;29.60;44.30;;;;;;5094723;28;20082;-73
2022/08/13 12:21:33;;;;;;;0.00;0.00;;;29.30;44.60;;;;;;5090097;28;20470;-74
2022/08/13 12:23:59;;;;;;;0.00;0.00;;;29.10;43.90;;;;;;5090284;28;20063;-74
2022/08/13 12:26:25;;;;;;;0.00;0.00;;;29.10;44.10;;;;;;5092033;28;20442;-74
2022/08/13 12:28:51;;;;;;;0.00;0.00;;;29.20;44.00;;;;;;5091732;28;20047;-74
2022/08/13 12:31:18;;;;;;;1.10;0.73;;;29.30;44.20;;;;;;5093780;28;20355;-74
2022/08/13 12:33:45;;;;;;;0.00;0.00;;;29.30;44.10;;;;;;5091543;28;20032;-74
2022/08/13 12:36:11;;;;;;;0.00;0.00;;;29.40;44.00;;;;;;5093367;28;20105;-74
2022/08/13 12:38:37;;;;;;;0.00;0.00;;;29.40;44.20;;;;;;5087489;28;20031;-74
2022/08/13 12:41:04;;;;;;;0.00;0.00;;;29.40;44.00;;;;;;5087938;28;20069;-74
2022/08/13 12:43:30;;;;;;;0.00;0.00;;;29.40;44.30;;;;;;5094521;28;20031;-74
2022/08/13 12:45:57;;;;;;;0.00;0.00;;;29.40;43.80;;;;;;5085516;28;20043;-74
2022/08/13 12:48:30;;;;;;;0.00;0.00;;;29.40;44.20;;;;;;5090550;28;20105;-74
2022/08/13 12:50:56;;;;;;;0.08;0.08;;;29.30;44.10;;;;;;5091737;28;20039;-74
2022/08/13 12:53:22;;;;;;;0.00;0.00;;;29.40;43.80;;;;;;5088201;28;20046;-75
2022/08/13 12:55:48;;;;;;;0.75;0.38;;;29.40;44.00;;;;;;5095801;28;20031;-74
2022/08/13 12:58:16;;;;;;;0.00;0.00;;;29.40;43.70;;;;;;5091563;28;20032;-75
2022/08/13 13:00:44;;;;;;;0.00;0.00;;;29.30;43.70;;;;;;5086342;28;20068;-72
2022/08/13 13:03:11;;;;;;;0.00;0.00;;;29.30;43.50;;;;;;5085181;28;20662;-73
2022/08/13 13:05:38;;;;;;;0.10;0.10;;;29.30;43.60;;;;;;5072576;28;20368;-73
2022/08/13 13:08:25;;;;;;;0.13;0.13;;;29.30;43.50;;;;;;5090257;28;20043;-73
2022/08/13 13:10:53;;;;;;;0.40;0.25;;;29.30;43.80;;;;;;5089353;28;20036;-75
2022/08/13 13:13:21;;;;;;;0.00;0.00;;;29.30;44.00;;;;;;5091171;28;20064;-73
2022/08/13 13:15:48;;;;;;;0.43;0.43;;;29.20;45.10;;;;;;5093317;28;20067;-73
2022/08/13 13:18:19;;;;;;;0.00;0.00;;;29.20;44.40;;;;;;5091631;28;20028;-73
2022/08/13 13:20:47;;;;;;;0.00;0.00;;;29.10;44.60;;;;;;5082092;28;20028;-72